sensor_id;sensor_type;location;lat;lon;timestamp;temperature;humidity
54272;DHT22;40184;53.362;5.216;2023-05-10T00:00:32;12.10;99.90
54272;DHT22;40184;53.362;5.216;2023-05-10T00:02:58;12.10;99.90
54272;DHT22;40184;53.362;5.216;2023-05-10T00:05:23;12.10;99.90
54272;DHT22;40184;53.362;5.216;2023-05-10T00:07:49;12.00;99.90
54272;DHT22;40184;53.362;5.216;2023-05-10T00:10:14;12.00;99.90
54272;DHT22;40184;53.362;5.216;2023-05-10T00:12:40;12.00;99.90
54272;DHT22;40184;53.362;5.216;2023-05-10T00:15:06;12.00;99.90
54272;DHT22;40184;53.362;5.216;2023-05-10T00:17:32;12.00;99.90
54272;DHT22;40184;53.362;5.216;2023-05-10T00:19:57;11.90;99.90
54272;DHT22;40184;53.362;5.216;2023-05-10T00:22:23;12.00;99.90
54272;DHT22;40184;53.362;5.216;2023-05-10T00:24:48;11.90;99.90
54272;DHT22;40184;53.362;5.216;2023-05-10T00:27:14;12.00;99.90
54272;DHT22;40184;53.362;5.216;2023-05-10T00:29:39;11.90;99.90
54272;DHT22;40184;53.362;5.216;2023-05-10T00:32:05;11.90;99.90
54272;DHT22;40184;53.362;5.216;2023-05-10T00:34:31;11.90;99.90
54272;DHT22;40184;53.362;5.216;2023-05-10T00:36:57;11.90;99.90
54272;DHT22;40184;53.362;5.216;2023-05-10T00:39:23;11.90;99.90
54272;DHT22;40184;53.362;5.216;2023-05-10T00:41:48;11.90;99.90
54272;DHT22;40184;53.362;5.216;2023-05-10T00:44:14;11.90;99.90
54272;DHT22;40184;53.362;5.216;2023-05-10T00:46:39;11.90;99.90
54272;DHT22;40184;53.362;5.216;2023-05-10T00:49:05;11.90;99.90
54272;DHT22;40184;53.362;5.216;2023-05-10T00:51:31;11.90;99.90
54272;DHT22;40184;53.362;5.216;2023-05-10T00:53:56;11.90;99.90
54272;DHT22;40184;53.362;5.216;2023-05-10T00:56:22;11.90;99.90
54272;DHT22;40184;53.362;5.216;2023-05-10T00:58:49;11.90;99.90
54272;DHT22;40184;53.362;5.216;2023-05-10T01:01:15;11.90;99.90
54272;DHT22;40184;53.362;5.216;2023-05-10T01:03:41;12.00;99.90
54272;DHT22;40184;53.362;5.216;2023-05-10T01:06:07;11.90;99.90
54272;DHT22;40184;53.362;5.216;2023-05-10T01:08:32;11.90;99.90
54272;DHT22;40184;53.362;5.216;2023-05-10T01:10:58;11.90;99.90
54272;DHT22;40184;53.362;5.216;2023-05-10T01:13:33;11.90;99.90
54272;DHT22;40184;53.362;5.216;2023-05-10T01:16:00;11.90;99.90
54272;DHT22;40184;53.362;5.216;2023-05-10T01:18:27;11.90;99.90
54272;DHT22;40184;53.362;5.216;2023-05-10T01:21:30;11.90;99.90
54272;DHT22;40184;53.362;5.216;2023-05-10T01:34:23;11.80;99.90
54272;DHT22;40184;53.362;5.216;2023-05-10T01:37:01;11.80;99.90
54272;DHT22;40184;53.362;5.216;2023-05-10T01:44:33;11.80;99.90
54272;DHT22;40184;53.362;5.216;2023-05-10T01:47:04;11.80;99.90
54272;DHT22;40184;53.362;5.216;2023-05-10T01:49:32;11.80;99.90
54272;DHT22;40184;53.362;5.216;2023-05-10T01:52:01;11.80;99.90
54272;DHT22;40184;53.362;5.216;2023-05-10T01:54:29;11.80;99.90
54272;DHT22;40184;53.362;5.216;2023-05-10T01:56:56;11.80;99.90
54272;DHT22;40184;53.362;5.216;2023-05-10T01:59:25;11.80;99.90
54272;DHT22;40184;53.362;5.216;2023-05-10T02:01:53;11.80;99.90
54272;DHT22;40184;53.362;5.216;2023-05-10T02:04:19;11.80;99.90
54272;DHT22;40184;53.362;5.216;2023-05-10T02:06:47;11.80;99.90
54272;DHT22;40184;53.362;5.216;2023-05-10T02:09:13;11.80;99.90
54272;DHT22;40184;53.362;5.216;2023-05-10T02:11:39;11.80;99.90
54272;DHT22;40184;53.362;5.216;2023-05-10T02:14:07;11.80;99.90
54272;DHT22;40184;53.362;5.216;2023-05-10T02:16:34;11.80;99.90
54272;DHT22;40184;53.362;5.216;2023-05-10T02:19:00;11.70;99.90
54272;DHT22;40184;53.362;5.216;2023-05-10T02:21:26;11.70;99.90
54272;DHT22;40184;53.362;5.216;2023-05-10T02:23:53;11.80;99.90
54272;DHT22;40184;53.362;5.216;2023-05-10T02:26:20;11.80;99.90
54272;DHT22;40184;53.362;5.216;2023-05-10T02:28:46;11.80;99.90
54272;DHT22;40184;53.362;5.216;2023-05-10T02:31:12;11.80;99.90
54272;DHT22;40184;53.362;5.216;2023-05-10T02:33:39;11.80;99.90
54272;DHT22;40184;53.362;5.216;2023-05-10T02:36:05;11.80;99.90
54272;DHT22;40184;53.362;5.216;2023-05-10T02:38:32;11.80;99.90
54272;DHT22;40184;53.362;5.216;2023-05-10T02:40:58;11.80;99.90
54272;DHT22;40184;53.362;5.216;2023-05-10T02:43:24;11.80;99.90
54272;DHT22;40184;53.362;5.216;2023-05-10T02:45:50;11.80;99.90
54272;DHT22;40184;53.362;5.216;2023-05-10T02:48:16;11.70;99.90
54272;DHT22;40184;53.362;5.216;2023-05-10T02:50:43;11.80;99.90
54272;DHT22;40184;53.362;5.216;2023-05-10T02:53:15;11.80;99.90
54272;DHT22;40184;53.362;5.216;2023-05-10T02:55:40;11.80;99.90
54272;DHT22;40184;53.362;5.216;2023-05-10T02:58:07;11.80;99.90
54272;DHT22;40184;53.362;5.216;2023-05-10T03:00:33;11.80;99.90
54272;DHT22;40184;53.362;5.216;2023-05-10T03:02:58;11.80;99.90
54272;DHT22;40184;53.362;5.216;2023-05-10T03:05:24;11.80;99.90
54272;DHT22;40184;53.362;5.216;2023-05-10T03:07:49;11.70;99.90
54272;DHT22;40184;53.362;5.216;2023-05-10T03:10:16;11.70;99.90
54272;DHT22;40184;53.362;5.216;2023-05-10T03:16:01;11.70;99.90
54272;DHT22;40184;53.362;5.216;2023-05-10T03:20:34;11.70;99.90
54272;DHT22;40184;53.362;5.216;2023-05-10T03:23:06;11.70;99.90
54272;DHT22;40184;53.362;5.216;2023-05-10T03:25:33;11.70;99.90
54272;DHT22;40184;53.362;5.216;2023-05-10T03:28:00;11.70;99.90
54272;DHT22;40184;53.362;5.216;2023-05-10T03:30:26;11.70;99.90
54272;DHT22;40184;53.362;5.216;2023-05-10T03:32:52;11.60;99.90
54272;DHT22;40184;53.362;5.216;2023-05-10T03:35:17;11.60;99.90
54272;DHT22;40184;53.362;5.216;2023-05-10T03:37:43;11.60;99.90
54272;DHT22;40184;53.362;5.216;2023-05-10T03:40:09;11.60;99.90
54272;DHT22;40184;53.362;5.216;2023-05-10T03:42:34;11.60;99.90
54272;DHT22;40184;53.362;5.216;2023-05-10T03:45:00;11.60;99.90
54272;DHT22;40184;53.362;5.216;2023-05-10T03:47:25;11.60;99.90
54272;DHT22;40184;53.362;5.216;2023-05-10T03:49:51;11.60;99.90
54272;DHT22;40184;53.362;5.216;2023-05-10T03:52:17;11.60;99.90
54272;DHT22;40184;53.362;5.216;2023-05-10T03:54:43;11.60;99.90
54272;DHT22;40184;53.362;5.216;2023-05-10T03:57:08;11.60;99.90
54272;DHT22;40184;53.362;5.216;2023-05-10T03:59:34;11.60;99.90
54272;DHT22;40184;53.362;5.216;2023-05-10T04:02:00;11.50;99.90
54272;DHT22;40184;53.362;5.216;2023-05-10T04:04:26;11.60;99.90
54272;DHT22;40184;53.362;5.216;2023-05-10T04:06:51;11.60;99.90
54272;DHT22;40184;53.362;5.216;2023-05-10T04:09:17;11.60;99.90
54272;DHT22;40184;53.362;5.216;2023-05-10T04:11:42;11.60;99.90
54272;DHT22;40184;53.362;5.216;2023-05-10T04:14:08;11.60;99.90
54272;DHT22;40184;53.362;5.216;2023-05-10T04:16:34;11.60;99.90
54272;DHT22;40184;53.362;5.216;2023-05-10T04:18:59;11.60;99.90
54272;DHT22;40184;53.362;5.216;2023-05-10T04:21:25;11.60;99.90
54272;DHT22;40184;53.362;5.216;2023-05-10T04:23:51;11.60;99.90
54272;DHT22;40184;53.362;5.216;2023-05-10T04:26:16;11.60;99.90
54272;DHT22;40184;53.362;5.216;2023-05-10T04:28:42;11.60;99.90
54272;DHT22;40184;53.362;5.216;2023-05-10T04:31:08;11.60;99.90
54272;DHT22;40184;53.362;5.216;2023-05-10T04:33:34;11.60;99.90
54272;DHT22;40184;53.362;5.216;2023-05-10T04:35:59;11.60;99.90
54272;DHT22;40184;53.362;5.216;2023-05-10T04:38:26;11.60;99.90
54272;DHT22;40184;53.362;5.216;2023-05-10T04:40:52;11.70;99.90
54272;DHT22;40184;53.362;5.216;2023-05-10T04:43:18;11.70;99.90
54272;DHT22;40184;53.362;5.216;2023-05-10T04:45:43;11.70;99.90
54272;DHT22;40184;53.362;5.216;2023-05-10T04:48:09;11.80;99.90
54272;DHT22;40184;53.362;5.216;2023-05-10T04:50:34;11.70;99.90
54272;DHT22;40184;53.362;5.216;2023-05-10T04:53:00;11.70;99.90
54272;DHT22;40184;53.362;5.216;2023-05-10T04:55:26;11.80;99.90
54272;DHT22;40184;53.362;5.216;2023-05-10T04:57:52;11.70;99.90
54272;DHT22;40184;53.362;5.216;2023-05-10T05:00:18;11.80;99.90
54272;DHT22;40184;53.362;5.216;2023-05-10T05:02:44;11.80;99.90
54272;DHT22;40184;53.362;5.216;2023-05-10T05:05:11;11.80;99.90
54272;DHT22;40184;53.362;5.216;2023-05-10T05:07:36;11.80;99.90
54272;DHT22;40184;53.362;5.216;2023-05-10T05:10:04;11.80;99.90
54272;DHT22;40184;53.362;5.216;2023-05-10T05:12:30;11.80;99.90
54272;DHT22;40184;53.362;5.216;2023-05-10T05:14:55;11.80;99.90
54272;DHT22;40184;53.362;5.216;2023-05-10T05:17:21;11.80;99.90
54272;DHT22;40184;53.362;5.216;2023-05-10T05:19:46;11.80;99.90
54272;DHT22;40184;53.362;5.216;2023-05-10T05:22:12;11.80;99.90
54272;DHT22;40184;53.362;5.216;2023-05-10T05:24:37;11.80;99.90
54272;DHT22;40184;53.362;5.216;2023-05-10T05:27:03;11.80;99.90
54272;DHT22;40184;53.362;5.216;2023-05-10T05:29:29;11.80;99.90
54272;DHT22;40184;53.362;5.216;2023-05-10T05:31:55;11.80;99.90
54272;DHT22;40184;53.362;5.216;2023-05-10T05:34:20;11.80;99.90
54272;DHT22;40184;53.362;5.216;2023-05-10T05:36:47;11.80;99.90
54272;DHT22;40184;53.362;5.216;2023-05-10T05:39:12;11.80;99.90
54272;DHT22;40184;53.362;5.216;2023-05-10T05:41:38;11.80;99.90
54272;DHT22;40184;53.362;5.216;2023-05-10T05:44:03;11.80;99.90
54272;DHT22;40184;53.362;5.216;2023-05-10T05:46:29;11.80;99.90
54272;DHT22;40184;53.362;5.216;2023-05-10T05:48:55;11.80;99.90
54272;DHT22;40184;53.362;5.216;2023-05-10T05:51:20;11.80;99.90
54272;DHT22;40184;53.362;5.216;2023-05-10T05:53:46;11.80;99.90
54272;DHT22;40184;53.362;5.216;2023-05-10T05:56:11;11.80;99.90
54272;DHT22;40184;53.362;5.216;2023-05-10T05:58:37;11.80;99.90
54272;DHT22;40184;53.362;5.216;2023-05-10T06:01:02;11.80;99.90
54272;DHT22;40184;53.362;5.216;2023-05-10T06:03:28;11.80;99.90
54272;DHT22;40184;53.362;5.216;2023-05-10T06:05:53;11.80;99.90
54272;DHT22;40184;53.362;5.216;2023-05-10T06:08:19;11.80;99.90
54272;DHT22;40184;53.362;5.216;2023-05-10T06:10:45;11.90;99.90
54272;DHT22;40184;53.362;5.216;2023-05-10T06:13:11;12.00;99.90
54272;DHT22;40184;53.362;5.216;2023-05-10T06:15:37;12.10;99.90
54272;DHT22;40184;53.362;5.216;2023-05-10T06:18:02;12.10;99.90
54272;DHT22;40184;53.362;5.216;2023-05-10T06:20:28;12.10;99.90
54272;DHT22;40184;53.362;5.216;2023-05-10T06:22:54;12.10;99.90
54272;DHT22;40184;53.362;5.216;2023-05-10T06:25:19;12.10;99.90
54272;DHT22;40184;53.362;5.216;2023-05-10T06:27:45;12.10;99.90
54272;DHT22;40184;53.362;5.216;2023-05-10T06:30:10;12.10;99.90
54272;DHT22;40184;53.362;5.216;2023-05-10T06:32:38;12.20;99.90
54272;DHT22;40184;53.362;5.216;2023-05-10T06:35:04;12.10;99.90
54272;DHT22;40184;53.362;5.216;2023-05-10T06:37:29;12.20;99.90
54272;DHT22;40184;53.362;5.216;2023-05-10T06:39:55;12.20;99.90
54272;DHT22;40184;53.362;5.216;2023-05-10T06:42:21;12.20;99.90
54272;DHT22;40184;53.362;5.216;2023-05-10T06:44:46;12.20;99.90
54272;DHT22;40184;53.362;5.216;2023-05-10T06:47:12;12.20;99.90
54272;DHT22;40184;53.362;5.216;2023-05-10T06:49:37;12.20;99.90
54272;DHT22;40184;53.362;5.216;2023-05-10T06:52:03;12.20;99.90
54272;DHT22;40184;53.362;5.216;2023-05-10T06:54:29;12.20;99.90
54272;DHT22;40184;53.362;5.216;2023-05-10T06:56:55;12.20;99.90
54272;DHT22;40184;53.362;5.216;2023-05-10T06:59:20;12.20;99.90
54272;DHT22;40184;53.362;5.216;2023-05-10T07:01:47;12.10;99.90
54272;DHT22;40184;53.362;5.216;2023-05-10T07:04:12;12.10;99.90
54272;DHT22;40184;53.362;5.216;2023-05-10T07:06:38;12.20;99.90
54272;DHT22;40184;53.362;5.216;2023-05-10T07:09:04;12.20;99.90
54272;DHT22;40184;53.362;5.216;2023-05-10T07:11:29;12.20;99.90
54272;DHT22;40184;53.362;5.216;2023-05-10T07:13:55;12.20;99.90
54272;DHT22;40184;53.362;5.216;2023-05-10T07:16:20;12.20;99.90
54272;DHT22;40184;53.362;5.216;2023-05-10T07:18:46;12.30;99.90
54272;DHT22;40184;53.362;5.216;2023-05-10T07:21:12;12.40;99.90
54272;DHT22;40184;53.362;5.216;2023-05-10T07:23:37;12.30;99.90
54272;DHT22;40184;53.362;5.216;2023-05-10T07:26:03;12.30;99.90
54272;DHT22;40184;53.362;5.216;2023-05-10T07:28:29;12.30;99.90
54272;DHT22;40184;53.362;5.216;2023-05-10T07:30:54;12.30;99.90
54272;DHT22;40184;53.362;5.216;2023-05-10T07:33:20;12.30;99.90
54272;DHT22;40184;53.362;5.216;2023-05-10T07:35:45;12.30;99.90
54272;DHT22;40184;53.362;5.216;2023-05-10T07:38:11;12.40;99.90
54272;DHT22;40184;53.362;5.216;2023-05-10T07:40:37;12.40;99.90
54272;DHT22;40184;53.362;5.216;2023-05-10T07:43:03;12.40;99.90
54272;DHT22;40184;53.362;5.216;2023-05-10T07:45:29;12.50;99.90
54272;DHT22;40184;53.362;5.216;2023-05-10T07:47:54;12.50;99.90
54272;DHT22;40184;53.362;5.216;2023-05-10T07:50:20;12.50;99.90
54272;DHT22;40184;53.362;5.216;2023-05-10T07:52:46;12.50;99.90
54272;DHT22;40184;53.362;5.216;2023-05-10T07:55:12;12.50;99.90
54272;DHT22;40184;53.362;5.216;2023-05-10T07:57:38;12.50;99.90
54272;DHT22;40184;53.362;5.216;2023-05-10T08:00:04;12.50;99.90
54272;DHT22;40184;53.362;5.216;2023-05-10T08:02:29;12.50;99.90
54272;DHT22;40184;53.362;5.216;2023-05-10T08:04:55;12.60;99.90
54272;DHT22;40184;53.362;5.216;2023-05-10T08:07:21;12.70;99.90
54272;DHT22;40184;53.362;5.216;2023-05-10T08:09:46;12.80;99.90
54272;DHT22;40184;53.362;5.216;2023-05-10T08:12:12;12.80;99.90
54272;DHT22;40184;53.362;5.216;2023-05-10T08:14:37;12.90;99.90
54272;DHT22;40184;53.362;5.216;2023-05-10T08:17:03;13.00;99.90
54272;DHT22;40184;53.362;5.216;2023-05-10T08:19:29;13.00;99.90
54272;DHT22;40184;53.362;5.216;2023-05-10T08:21:54;12.90;99.90
54272;DHT22;40184;53.362;5.216;2023-05-10T08:24:21;12.90;99.90
54272;DHT22;40184;53.362;5.216;2023-05-10T08:26:46;12.90;99.90
54272;DHT22;40184;53.362;5.216;2023-05-10T08:29:13;12.90;99.90
54272;DHT22;40184;53.362;5.216;2023-05-10T08:31:38;12.90;99.90
54272;DHT22;40184;53.362;5.216;2023-05-10T08:34:04;13.00;99.90
54272;DHT22;40184;53.362;5.216;2023-05-10T08:36:29;13.00;99.90
54272;DHT22;40184;53.362;5.216;2023-05-10T08:38:55;13.00;99.90
54272;DHT22;40184;53.362;5.216;2023-05-10T08:41:21;13.00;99.90
54272;DHT22;40184;53.362;5.216;2023-05-10T08:43:49;13.00;99.90
54272;DHT22;40184;53.362;5.216;2023-05-10T08:46:16;13.00;99.90
54272;DHT22;40184;53.362;5.216;2023-05-10T08:48:45;13.00;99.90
54272;DHT22;40184;53.362;5.216;2023-05-10T08:51:18;13.00;99.90
54272;DHT22;40184;53.362;5.216;2023-05-10T08:53:44;13.00;99.90
54272;DHT22;40184;53.362;5.216;2023-05-10T08:56:10;12.90;99.90
54272;DHT22;40184;53.362;5.216;2023-05-10T08:58:36;13.00;99.90
54272;DHT22;40184;53.362;5.216;2023-05-10T09:01:01;13.00;99.90
54272;DHT22;40184;53.362;5.216;2023-05-10T09:03:27;13.10;99.90
54272;DHT22;40184;53.362;5.216;2023-05-10T09:05:53;12.90;99.90
54272;DHT22;40184;53.362;5.216;2023-05-10T09:08:18;13.00;99.90
54272;DHT22;40184;53.362;5.216;2023-05-10T09:10:45;12.90;99.90
54272;DHT22;40184;53.362;5.216;2023-05-10T09:13:12;13.00;99.90
54272;DHT22;40184;53.362;5.216;2023-05-10T09:15:39;13.00;99.90
54272;DHT22;40184;53.362;5.216;2023-05-10T09:18:04;13.00;99.90
54272;DHT22;40184;53.362;5.216;2023-05-10T09:20:30;13.00;99.90
54272;DHT22;40184;53.362;5.216;2023-05-10T09:22:56;13.00;99.90
54272;DHT22;40184;53.362;5.216;2023-05-10T09:25:22;13.10;99.90
54272;DHT22;40184;53.362;5.216;2023-05-10T09:27:48;13.10;99.90
54272;DHT22;40184;53.362;5.216;2023-05-10T09:30:35;13.20;99.90
54272;DHT22;40184;53.362;5.216;2023-05-10T09:32:59;13.20;99.90
54272;DHT22;40184;53.362;5.216;2023-05-10T09:35:31;13.20;99.90
54272;DHT22;40184;53.362;5.216;2023-05-10T09:37:58;13.30;99.90
54272;DHT22;40184;53.362;5.216;2023-05-10T09:40:25;13.40;99.90
54272;DHT22;40184;53.362;5.216;2023-05-10T09:42:55;13.40;99.90
54272;DHT22;40184;53.362;5.216;2023-05-10T09:45:21;13.50;99.90
54272;DHT22;40184;53.362;5.216;2023-05-10T09:47:47;13.50;99.90
54272;DHT22;40184;53.362;5.216;2023-05-10T09:50:13;13.50;99.90
54272;DHT22;40184;53.362;5.216;2023-05-10T09:55:13;13.50;99.90
54272;DHT22;40184;53.362;5.216;2023-05-10T09:57:39;13.60;99.90
54272;DHT22;40184;53.362;5.216;2023-05-10T10:00:05;13.60;99.90
54272;DHT22;40184;53.362;5.216;2023-05-10T10:02:31;13.50;99.90
54272;DHT22;40184;53.362;5.216;2023-05-10T10:04:57;13.50;99.90
54272;DHT22;40184;53.362;5.216;2023-05-10T10:07:23;13.50;99.90
54272;DHT22;40184;53.362;5.216;2023-05-10T10:09:50;13.60;99.90
54272;DHT22;40184;53.362;5.216;2023-05-10T10:12:15;13.60;99.90
54272;DHT22;40184;53.362;5.216;2023-05-10T10:14:41;13.70;99.90
54272;DHT22;40184;53.362;5.216;2023-05-10T10:17:06;13.60;99.90
54272;DHT22;40184;53.362;5.216;2023-05-10T10:19:33;13.60;99.90
54272;DHT22;40184;53.362;5.216;2023-05-10T10:21:58;13.70;99.90
54272;DHT22;40184;53.362;5.216;2023-05-10T10:24:25;13.60;99.90
54272;DHT22;40184;53.362;5.216;2023-05-10T10:26:52;13.60;99.90
54272;DHT22;40184;53.362;5.216;2023-05-10T10:32:18;13.60;99.90
54272;DHT22;40184;53.362;5.216;2023-05-10T10:34:44;13.60;99.90
54272;DHT22;40184;53.362;5.216;2023-05-10T10:37:10;13.50;99.90
54272;DHT22;40184;53.362;5.216;2023-05-10T10:39:36;13.50;99.90
54272;DHT22;40184;53.362;5.216;2023-05-10T10:42:02;13.60;99.90
54272;DHT22;40184;53.362;5.216;2023-05-10T10:52:14;13.70;99.90
54272;DHT22;40184;53.362;5.216;2023-05-10T10:54:50;13.80;99.90
54272;DHT22;40184;53.362;5.216;2023-05-10T10:57:17;13.80;99.90
54272;DHT22;40184;53.362;5.216;2023-05-10T10:59:43;13.80;99.90
54272;DHT22;40184;53.362;5.216;2023-05-10T11:04:56;13.70;99.90
54272;DHT22;40184;53.362;5.216;2023-05-10T11:07:21;13.70;99.90
54272;DHT22;40184;53.362;5.216;2023-05-10T11:09:47;13.70;99.90
54272;DHT22;40184;53.362;5.216;2023-05-10T11:12:13;13.80;99.90
54272;DHT22;40184;53.362;5.216;2023-05-10T11:14:38;14.00;99.90
54272;DHT22;40184;53.362;5.216;2023-05-10T11:17:23;14.10;99.90
54272;DHT22;40184;53.362;5.216;2023-05-10T11:20:09;14.10;99.90
54272;DHT22;40184;53.362;5.216;2023-05-10T11:22:50;14.00;99.90
54272;DHT22;40184;53.362;5.216;2023-05-10T11:25:17;13.90;99.90
54272;DHT22;40184;53.362;5.216;2023-05-10T11:27:42;13.80;99.90
54272;DHT22;40184;53.362;5.216;2023-05-10T11:30:11;13.90;99.90
54272;DHT22;40184;53.362;5.216;2023-05-10T11:32:37;13.80;99.90
54272;DHT22;40184;53.362;5.216;2023-05-10T11:35:07;13.90;99.90
54272;DHT22;40184;53.362;5.216;2023-05-10T11:37:32;13.80;99.90
54272;DHT22;40184;53.362;5.216;2023-05-10T11:39:59;14.00;99.90
54272;DHT22;40184;53.362;5.216;2023-05-10T11:42:25;14.10;99.90
54272;DHT22;40184;53.362;5.216;2023-05-10T11:44:50;14.10;99.90
54272;DHT22;40184;53.362;5.216;2023-05-10T11:47:16;14.10;99.90
54272;DHT22;40184;53.362;5.216;2023-05-10T11:49:45;14.20;99.90
54272;DHT22;40184;53.362;5.216;2023-05-10T11:52:11;14.00;99.90
54272;DHT22;40184;53.362;5.216;2023-05-10T11:54:36;14.10;99.90
54272;DHT22;40184;53.362;5.216;2023-05-10T11:57:02;14.20;99.90
54272;DHT22;40184;53.362;5.216;2023-05-10T11:59:28;14.70;99.90
54272;DHT22;40184;53.362;5.216;2023-05-10T12:01:53;14.60;99.90
54272;DHT22;40184;53.362;5.216;2023-05-10T12:04:19;14.80;99.90
54272;DHT22;40184;53.362;5.216;2023-05-10T12:06:45;14.80;99.90
54272;DHT22;40184;53.362;5.216;2023-05-10T12:09:11;14.50;99.90
54272;DHT22;40184;53.362;5.216;2023-05-10T12:11:38;14.50;99.90
54272;DHT22;40184;53.362;5.216;2023-05-10T12:14:05;14.40;99.90
54272;DHT22;40184;53.362;5.216;2023-05-10T12:16:31;14.60;99.90
54272;DHT22;40184;53.362;5.216;2023-05-10T12:18:57;14.60;99.90
54272;DHT22;40184;53.362;5.216;2023-05-10T12:21:23;14.80;99.90
54272;DHT22;40184;53.362;5.216;2023-05-10T12:23:53;14.70;99.90
54272;DHT22;40184;53.362;5.216;2023-05-10T12:26:22;14.70;99.90
54272;DHT22;40184;53.362;5.216;2023-05-10T12:28:48;14.70;99.90
54272;DHT22;40184;53.362;5.216;2023-05-10T12:31:13;14.60;99.90
54272;DHT22;40184;53.362;5.216;2023-05-10T12:33:40;14.70;99.90
54272;DHT22;40184;53.362;5.216;2023-05-10T12:36:09;14.60;99.90
54272;DHT22;40184;53.362;5.216;2023-05-10T12:38:36;14.70;99.90
54272;DHT22;40184;53.362;5.216;2023-05-10T12:41:07;14.50;99.90
54272;DHT22;40184;53.362;5.216;2023-05-10T12:43:33;14.50;99.90
54272;DHT22;40184;53.362;5.216;2023-05-10T12:45:58;14.60;99.90
54272;DHT22;40184;53.362;5.216;2023-05-10T12:48:29;14.60;99.90
54272;DHT22;40184;53.362;5.216;2023-05-10T12:50:56;14.70;99.90
54272;DHT22;40184;53.362;5.216;2023-05-10T12:53:21;14.60;99.90
54272;DHT22;40184;53.362;5.216;2023-05-10T12:55:47;14.50;99.90
54272;DHT22;40184;53.362;5.216;2023-05-10T12:58:12;14.40;99.90
54272;DHT22;40184;53.362;5.216;2023-05-10T13:00:38;14.50;99.90
54272;DHT22;40184;53.362;5.216;2023-05-10T13:03:04;14.50;99.90
54272;DHT22;40184;53.362;5.216;2023-05-10T13:05:33;14.40;99.90
54272;DHT22;40184;53.362;5.216;2023-05-10T13:07:58;14.40;99.90
54272;DHT22;40184;53.362;5.216;2023-05-10T13:10:24;14.40;99.90
54272;DHT22;40184;53.362;5.216;2023-05-10T13:12:50;14.40;99.90
54272;DHT22;40184;53.362;5.216;2023-05-10T13:15:16;14.40;99.90
54272;DHT22;40184;53.362;5.216;2023-05-10T13:17:42;14.40;99.90
54272;DHT22;40184;53.362;5.216;2023-05-10T13:20:08;14.50;99.90
54272;DHT22;40184;53.362;5.216;2023-05-10T13:22:34;14.50;99.90
54272;DHT22;40184;53.362;5.216;2023-05-10T13:25:00;14.60;99.90
54272;DHT22;40184;53.362;5.216;2023-05-10T13:27:26;14.50;99.90
54272;DHT22;40184;53.362;5.216;2023-05-10T13:29:52;14.20;99.90
54272;DHT22;40184;53.362;5.216;2023-05-10T13:32:18;14.40;99.90
54272;DHT22;40184;53.362;5.216;2023-05-10T13:34:43;14.50;99.90
54272;DHT22;40184;53.362;5.216;2023-05-10T13:37:09;14.40;99.90
54272;DHT22;40184;53.362;5.216;2023-05-10T13:39:35;14.20;99.90
54272;DHT22;40184;53.362;5.216;2023-05-10T13:42:03;14.10;99.90
54272;DHT22;40184;53.362;5.216;2023-05-10T13:44:28;14.00;99.90
54272;DHT22;40184;53.362;5.216;2023-05-10T13:46:54;14.00;99.90
54272;DHT22;40184;53.362;5.216;2023-05-10T13:49:20;14.20;99.90
54272;DHT22;40184;53.362;5.216;2023-05-10T13:51:47;14.20;99.90
54272;DHT22;40184;53.362;5.216;2023-05-10T13:54:12;14.50;99.90
54272;DHT22;40184;53.362;5.216;2023-05-10T13:56:38;14.40;99.90
54272;DHT22;40184;53.362;5.216;2023-05-10T13:59:04;14.20;99.90
54272;DHT22;40184;53.362;5.216;2023-05-10T14:01:29;14.10;99.90
54272;DHT22;40184;53.362;5.216;2023-05-10T14:03:55;14.10;99.90
54272;DHT22;40184;53.362;5.216;2023-05-10T14:06:21;14.20;99.90
54272;DHT22;40184;53.362;5.216;2023-05-10T14:08:46;14.30;99.90
54272;DHT22;40184;53.362;5.216;2023-05-10T14:11:12;14.20;99.90
54272;DHT22;40184;53.362;5.216;2023-05-10T14:13:38;14.20;99.90
54272;DHT22;40184;53.362;5.216;2023-05-10T14:16:03;14.20;99.90
54272;DHT22;40184;53.362;5.216;2023-05-10T14:18:29;14.30;99.90
54272;DHT22;40184;53.362;5.216;2023-05-10T14:20:55;14.40;99.90
54272;DHT22;40184;53.362;5.216;2023-05-10T14:23:21;14.20;99.90
54272;DHT22;40184;53.362;5.216;2023-05-10T14:25:52;14.10;99.90
54272;DHT22;40184;53.362;5.216;2023-05-10T14:28:18;14.20;99.90
54272;DHT22;40184;53.362;5.216;2023-05-10T14:30:44;14.20;99.90
54272;DHT22;40184;53.362;5.216;2023-05-10T14:33:09;14.20;99.90
54272;DHT22;40184;53.362;5.216;2023-05-10T14:35:35;14.20;99.90
54272;DHT22;40184;53.362;5.216;2023-05-10T14:38:01;14.20;99.90
54272;DHT22;40184;53.362;5.216;2023-05-10T14:40:27;14.20;99.90
54272;DHT22;40184;53.362;5.216;2023-05-10T14:42:53;14.30;99.90
54272;DHT22;40184;53.362;5.216;2023-05-10T14:45:20;14.30;99.90
54272;DHT22;40184;53.362;5.216;2023-05-10T14:47:45;14.50;99.90
54272;DHT22;40184;53.362;5.216;2023-05-10T14:50:11;14.50;99.90
54272;DHT22;40184;53.362;5.216;2023-05-10T14:52:36;14.40;99.90
54272;DHT22;40184;53.362;5.216;2023-05-10T14:55:02;14.20;99.90
54272;DHT22;40184;53.362;5.216;2023-05-10T14:57:28;14.10;99.90
54272;DHT22;40184;53.362;5.216;2023-05-10T14:59:55;14.00;99.90
54272;DHT22;40184;53.362;5.216;2023-05-10T15:02:21;14.00;99.90
54272;DHT22;40184;53.362;5.216;2023-05-10T15:04:47;14.00;99.90
54272;DHT22;40184;53.362;5.216;2023-05-10T15:07:12;14.00;99.90
54272;DHT22;40184;53.362;5.216;2023-05-10T15:09:40;13.80;99.90
54272;DHT22;40184;53.362;5.216;2023-05-10T15:12:06;13.70;99.90
54272;DHT22;40184;53.362;5.216;2023-05-10T15:14:31;13.70;99.90
54272;DHT22;40184;53.362;5.216;2023-05-10T15:16:58;13.70;99.90
54272;DHT22;40184;53.362;5.216;2023-05-10T15:19:24;13.60;99.90
54272;DHT22;40184;53.362;5.216;2023-05-10T15:21:49;13.50;99.90
54272;DHT22;40184;53.362;5.216;2023-05-10T15:24:15;13.40;99.90
54272;DHT22;40184;53.362;5.216;2023-05-10T15:26:40;13.40;99.90
54272;DHT22;40184;53.362;5.216;2023-05-10T15:29:06;13.40;99.90
54272;DHT22;40184;53.362;5.216;2023-05-10T15:31:32;13.30;99.90
54272;DHT22;40184;53.362;5.216;2023-05-10T15:34:00;13.30;99.90
54272;DHT22;40184;53.362;5.216;2023-05-10T15:36:25;13.30;99.90
54272;DHT22;40184;53.362;5.216;2023-05-10T15:38:51;13.40;99.90
54272;DHT22;40184;53.362;5.216;2023-05-10T15:41:16;13.40;99.90
54272;DHT22;40184;53.362;5.216;2023-05-10T15:43:42;13.30;99.90
54272;DHT22;40184;53.362;5.216;2023-05-10T15:46:07;13.30;99.90
54272;DHT22;40184;53.362;5.216;2023-05-10T15:48:33;13.20;99.90
54272;DHT22;40184;53.362;5.216;2023-05-10T15:50:59;13.10;99.90
54272;DHT22;40184;53.362;5.216;2023-05-10T15:53:24;13.20;99.90
54272;DHT22;40184;53.362;5.216;2023-05-10T15:55:50;13.10;99.90
54272;DHT22;40184;53.362;5.216;2023-05-10T15:58:16;13.00;99.90
54272;DHT22;40184;53.362;5.216;2023-05-10T16:00:41;12.90;99.90